Latest Weather Observations for Redcliffe

IDQ60801

Issued at 8:05 am EST Monday 24 November 2014 (issued every 30 minutes, with the page automatically refreshed every 10 minutes)

About weather observations | Map of weather stations | Latest weather observations for QLD | Other Formats
Station Details ID: 040958 Name: REDCLIFFE Lat: -27.22 Lon: 153.09 Height: 12.6 m
Data from the previous 72 hours. | See also: Recent months at Redcliffe
Date/Time
EST
Temp
°C
App
Temp
°C
Dew
Point
Rel
Hum
%
Delta-T
°C
Wind Press
QNH
hPa
Press
MSL
hPa
Rain
since 9 am
mm
Dir
 
Spd
km/h
Gust
km/h
Spd
kts
Gust
kts
24/08:00am 26.3 25.4 18.2 61 5.1 N 20 26 11 14 1018.2 1018.1 0.0
24/07:30am 25.4 24.7 18.6 66 4.3 N 20 28 11 15 1018.2 1018.1 0.0
24/07:00am 24.8 25.1 19.6 73 3.3 N 17 22 9 12 1018.2 1018.1 0.0
24/06:30am 24.2 24.1 19.5 75 3.0 N 19 28 10 15 1018.1 1018.0 0.0
24/06:00am 23.8 23.7 19.5 77 2.8 N 19 32 10 17 1017.8 1017.7 0.0
24/05:30am 23.3 23.4 19.2 78 2.6 N 17 24 9 13 1017.6 1017.5 0.0
24/05:00am 23.1 23.2 19.1 78 2.5 N 17 24 9 13 1017.3 1017.2 0.0
24/04:30am 23.1 22.9 19.3 79 2.4 N 19 26 10 14 1017.1 1017.0 0.0
24/04:00am 23.2 23.1 19.6 80 2.3 N 19 26 10 14 1016.6 1016.5 0.0
24/03:30am 23.1 22.4 19.5 80 2.3 N 22 30 12 16 1016.6 1016.5 0.0
24/03:00am 23.3 23.1 19.7 80 2.3 N 20 28 11 15 1016.7 1016.6 0.0
24/02:30am 23.4 23.2 19.8 80 2.3 N 20 26 11 14 1016.6 1016.5 0.0
24/02:00am 23.6 23.0 19.7 79 2.5 N 22 32 12 17 1016.4 1016.3 0.0
24/01:30am 23.7 22.4 19.8 79 2.5 N 26 35 14 19 1016.5 1016.4 0.0
24/01:00am 23.9 22.3 20.0 79 2.5 N 28 39 15 21 1016.5 1016.4 0.0
24/12:30am 24.0 21.6 19.9 78 2.6 N 32 37 17 20 1016.7 1016.6 0.0
24/12:00am 24.1 22.4 19.8 77 2.8 N 28 37 15 20 1016.9 1016.8 0.0
 
Date/Time
EST
Temp
°C
App
Temp
°C
Dew
Point
Rel
Hum
%
Delta-T
°C
Wind Press
QNH
hPa
Press
MSL
hPa
Rain
since 9 am
mm
Dir
 
Spd
km/h
Gust
km/h
Spd
kts
Gust
kts
23/11:30pm 24.2 22.6 20.1 78 2.7 N 28 33 15 18 1017.1 1017.0 0.0
23/11:00pm 24.2 21.9 20.1 78 2.7 N 32 39 17 21 1017.0 1016.9 0.0
23/10:30pm 24.5 21.4 20.4 78 2.7 N 37 46 20 25 1016.8 1016.7 0.0
23/10:00pm 24.7 21.9 20.2 76 2.9 N 35 41 19 22 1016.7 1016.6 0.0
23/09:30pm 24.8 21.9 20.1 75 3.0 N 35 41 19 22 1016.8 1016.7 0.0
23/09:00pm 24.9 21.5 19.9 74 3.2 N 37 44 20 24 1016.5 1016.4 0.0
23/08:30pm 24.9 22.1 20.2 75 3.1 N 35 41 19 22 1016.5 1016.4 0.0
23/08:00pm 25.0 22.0 19.8 73 3.4 N 35 43 19 23 1016.2 1016.1 0.0
23/07:30pm 25.1 22.6 19.7 72 3.5 NNE 32 37 17 20 1015.8 1015.7 0.0
23/07:00pm 25.3 22.6 19.7 71 3.6 N 33 41 18 22 1015.3 1015.2 0.0
23/06:30pm 25.5 21.7 18.9 67 4.2 N 37 44 20 24 1014.9 1014.8 0.0
23/06:00pm 25.9 22.2 19.1 66 4.4 N 37 44 20 24 1014.4 1014.3 0.0
23/05:30pm 26.0 21.7 18.7 64 4.7 NNE 39 44 21 24 1014.0 1013.9 0.0
23/05:00pm 26.5 22.0 17.3 57 5.8 N 37 43 20 23 1013.9 1013.8 0.0
23/04:30pm 27.4 24.0 18.1 57 5.9 N 33 39 18 21 1014.1 1014.0 0.0
23/04:00pm 27.4 23.0 17.6 55 6.2 NNE 37 41 20 22 1013.9 1013.8 0.0
23/03:30pm 27.8 23.8 17.6 53 6.4 NNE 35 41 19 22 1014.2 1014.1 0.0
23/03:00pm 28.3 24.1 17.2 51 7.0 NNE 35 41 19 22 1014.4 1014.3 0.0
23/02:30pm 27.9 23.8 17.4 52 6.6 NNE 35 41 19 22 1014.8 1014.7 0.0
23/02:00pm 28.2 24.4 18.9 57 6.0 NE 37 44 20 24 1014.9 1014.8 0.0
23/01:30pm 28.6 24.8 19.0 56 6.2 NE 37 41 20 22 1015.4 1015.3 0.0
23/01:00pm 28.1 23.9 18.8 57 6.0 NNE 39 43 21 23 1015.8 1015.7 0.0
23/12:30pm 28.3 24.9 19.8 60 5.5 NE 37 43 20 23 1016.2 1016.1 0.0
23/12:00pm 28.7 25.3 19.9 59 5.8 NE 37 41 20 22 1016.5 1016.4 0.0
23/11:30am 28.4 25.0 19.1 57 6.0 NE 35 39 19 21 1017.1 1017.0 0.0
23/11:00am 27.5 24.6 18.8 59 5.6 NE 32 37 17 20 1017.4 1017.3 0.0
23/10:30am 27.6 24.8 19.4 61 5.3 NE 33 37 18 20 1017.7 1017.6 0.0
23/10:00am 27.2 24.2 19.0 61 5.3 NE 33 37 18 20 1017.7 1017.6 0.0
23/09:30am 27.4 25.4 19.2 61 5.3 NNE 28 33 15 18 1018.0 1017.9 0.0
23/09:00am 27.2 25.6 19.3 62 5.1 NNE 26 28 14 15 1017.9 1017.8 0.0
23/08:30am 26.6 24.9 19.0 63 4.9 N 26 30 14 16 1017.9 1017.8 0.0
23/08:00am 26.5 25.4 20.3 68 4.0 N 26 30 14 16 1018.1 1018.0 0.0
23/07:30am 25.7 24.1 20.0 71 3.7 N 28 33 15 18 1018.2 1018.1 0.0
23/07:00am 25.2 24.0 20.0 73 3.4 N 26 30 14 16 1017.8 1017.7 0.0
23/06:30am 24.8 23.0 19.6 73 3.3 N 28 37 15 20 1017.3 1017.2 0.0
23/06:00am 24.6 22.7 19.4 73 3.3 N 28 37 15 20 1016.9 1016.8 0.0
23/05:30am 24.4 21.9 19.7 75 3.0 N 32 37 17 20 1016.6 1016.5 0.0
23/05:00am 24.1 22.4 19.8 77 2.8 N 28 33 15 18 1016.3 1016.2 0.0
23/04:30am 24.1 22.8 19.8 77 2.8 N 26 32 14 17 1015.8 1015.7 0.0
23/04:00am 24.1 22.5 20.0 78 2.6 N 28 37 15 20 1015.3 1015.2 0.0
23/03:30am 24.0 21.5 20.1 79 2.5 N 33 39 18 21 1015.0 1014.9 0.0
23/03:00am 24.2 22.5 20.5 80 2.4 N 30 37 16 20 1014.9 1014.8 0.0
23/02:30am 24.3 22.1 20.4 79 2.5 N 32 39 17 21 1014.7 1014.6 0.0
23/02:00am 24.3 22.6 20.6 80 2.4 N 30 39 16 21 1014.5 1014.4 0.0
23/01:30am 24.5 22.9 20.8 80 2.4 N 30 39 16 21 1014.7 1014.6 0.0
23/01:00am 24.6 22.5 20.5 78 2.7 N 32 39 17 21 1014.8 1014.7 0.0
23/12:30am 24.7 22.2 20.8 79 2.6 N 35 44 19 24 1014.9 1014.8 0.0
23/12:00am 24.9 22.1 21.0 79 2.6 N 37 44 20 24 1015.1 1015.0 0.0
 
Date/Time
EST
Temp
°C
App
Temp
°C
Dew
Point
Rel
Hum
%
Delta-T
°C
Wind Press
QNH
hPa
Press
MSL
hPa
Rain
since 9 am
mm
Dir
 
Spd
km/h
Gust
km/h
Spd
kts
Gust
kts
22/11:30pm 25.1 22.4 21.2 79 2.6 N 37 46 20 25 1015.2 1015.1 0.0
22/11:00pm 25.1 22.7 21.0 78 2.7 N 35 44 19 24 1015.4 1015.3 0.0
22/10:30pm 25.2 21.9 20.9 77 2.8 N 39 48 21 26 1015.3 1015.2 0.0
22/10:00pm 25.2 21.4 20.5 75 3.1 N 41 48 22 26 1015.1 1015.0 0.0
22/09:30pm 25.3 20.9 20.5 75 3.1 N 44 52 24 28 1015.0 1014.9 0.0
22/09:00pm 25.3 21.1 20.5 75 3.1 N 43 50 23 27 1014.8 1014.7 0.0
22/08:30pm 25.4 21.5 20.4 74 3.3 N 41 50 22 27 1014.6 1014.5 0.0
22/08:00pm 25.5 22.0 20.5 74 3.3 N 39 46 21 25 1014.4 1014.3 0.0
22/07:30pm 25.6 21.7 20.4 73 3.4 N 41 46 22 25 1013.9 1013.8 0.0
22/07:00pm 25.7 22.2 20.5 73 3.4 N 39 46 21 25 1013.6 1013.5 0.0
22/06:30pm 25.7 21.8 20.3 72 3.5 N 41 50 22 27 1012.9 1012.8 0.0
22/06:00pm 26.0 22.5 20.3 71 3.7 N 39 50 21 27 1012.6 1012.5 0.0
22/05:30pm 26.5 22.2 20.3 68 4.1 N 43 48 23 26 1012.4 1012.3 0.0
22/05:00pm 27.0 23.7 20.8 69 4.1 N 39 46 21 25 1012.1 1012.0 0.0
22/04:30pm 27.2 23.7 20.3 66 4.5 N 39 46 21 25 1011.7 1011.6 0.0
22/04:00pm 27.6 24.3 20.9 67 4.4 NNE 39 50 21 27 1011.4 1011.3 0.0
22/03:30pm 27.7 23.6 20.8 66 4.6 NNE 43 50 23 27 1011.5 1011.4 0.0
22/03:00pm 27.5 23.4 20.8 67 4.4 NNE 43 52 23 28 1011.6 1011.5 0.0
22/02:30pm 27.8 23.6 20.6 65 4.7 NNE 43 50 23 27 1011.6 1011.5 0.0
22/02:00pm 27.8 23.7 21.1 67 4.5 NNE 44 54 24 29 1012.0 1011.9 0.0
22/01:30pm 28.3 24.8 21.8 68 4.4 NNE 43 52 23 28 1012.5 1012.4 0.0
22/01:00pm 28.6 24.7 21.1 64 5.0 NE 43 50 23 27 1012.7 1012.6 0.0
22/12:30pm 29.2 26.6 22.2 66 4.7 NE 39 46 21 25 1013.0 1012.9 0.0
22/12:00pm 28.6 26.5 21.6 66 4.7 NNE 35 41 19 22 1013.5 1013.4 0.0
22/11:30am 29.1 27.3 22.3 66 4.6 NNE 35 39 19 21 1013.7 1013.6 0.0
22/11:00am 28.1 26.0 21.6 68 4.3 NNE 35 39 19 21 1014.2 1014.1 0.0
22/10:30am 28.0 25.7 21.3 67 4.5 NNE 35 37 19 20 1014.6 1014.5 0.0
22/10:00am 28.4 26.9 20.9 64 5.0 NE 30 37 16 20 1014.8 1014.7 0.0
22/09:30am 29.6 30.0 21.0 60 5.7 NNE 20 24 11 13 1015.1 1015.0 0.0
22/09:00am 28.2 27.2 20.5 63 5.1 N 26 30 14 16 1014.8 1014.7 0.0
22/08:30am 27.4 26.2 20.0 64 4.8 N 26 33 14 18 1015.1 1015.0 0.0
22/08:00am 27.4 27.2 21.2 69 4.1 N 24 28 13 15 1015.3 1015.2 0.0
22/07:30am 25.8 25.6 20.6 73 3.4 N 22 28 12 15 1015.2 1015.1 0.0
22/07:00am 25.3 24.6 20.3 74 3.3 N 24 30 13 16 1015.1 1015.0 0.0
22/06:30am 25.4 25.5 20.4 74 3.3 N 20 28 11 15 1014.7 1014.6 0.0
22/06:00am 24.7 24.4 20.4 77 2.8 N 22 32 12 17 1014.5 1014.4 0.0
22/05:30am 24.5 23.7 20.8 80 2.4 N 26 32 14 17 1014.2 1014.1 0.0
22/05:00am 24.3 23.4 20.6 80 2.4 N 26 33 14 18 1013.8 1013.7 0.0
22/04:30am 24.2 22.8 20.5 80 2.4 N 28 33 15 18 1013.5 1013.4 0.0
22/04:00am 24.3 22.9 20.4 79 2.5 N 28 33 15 18 1013.1 1013.0 0.0
22/03:30am 24.4 23.7 20.3 78 2.7 N 24 30 13 16 1012.9 1012.8 0.0
22/03:00am 24.4 22.6 20.3 78 2.7 N 30 35 16 19 1012.6 1012.5 0.0
22/02:30am 24.5 21.4 20.4 78 2.7 N 37 46 20 25 1012.0 1011.9 0.0
22/02:00am 24.5 21.4 20.4 78 2.7 N 37 46 20 25 1011.7 1011.6 0.0
22/01:30am 24.8 21.2 20.1 75 3.0 N 39 48 21 26 1011.8 1011.7 0.0
22/01:00am 24.9 22.5 19.9 74 3.2 N 32 37 17 20 1012.3 1012.2 0.0
22/12:30am 25.1 21.7 19.9 73 3.4 N 37 46 20 25 1012.7 1012.6 0.0
22/12:00am 25.2 21.2 20.2 74 3.3 N 41 48 22 26 1012.3 1012.2 0.0
 
Date/Time
EST
Temp
°C
App
Temp
°C
Dew
Point
Rel
Hum
%
Delta-T
°C
Wind Press
QNH
hPa
Press
MSL
hPa
Rain
since 9 am
mm
Dir
 
Spd
km/h
Gust
km/h
Spd
kts
Gust
kts
21/11:30pm 25.3 22.4 20.8 76 3.0 N 37 44 20 24 1012.7 1012.6 0.0
21/11:00pm 25.4 22.9 20.9 76 3.0 N 35 41 19 22 1013.4 1013.3 0.0
21/10:30pm 25.4 24.2 20.9 76 3.0 N 28 35 15 19 1013.7 1013.6 0.0
21/10:00pm 25.5 23.3 21.4 78 2.7 N 35 41 19 22 1013.5 1013.4 0.0
21/09:30pm 25.5 24.3 21.6 79 2.6 N 30 37 16 20 1013.7 1013.6 0.0
21/09:00pm 25.4 24.3 21.7 80 2.5 N 30 39 16 21 1013.4 1013.3 0.0
21/08:30pm 25.4 22.7 21.9 81 2.3 N 39 48 21 26 1012.7 1012.6 0.0
21/08:00pm 25.4 21.8 21.7 80 2.5 N 43 50 23 27 1012.5 1012.4 0.0
21/07:30pm 25.6 22.0 21.7 79 2.6 N 43 52 23 28 1012.5 1012.4 0.0
21/07:00pm 25.6 21.8 21.3 77 2.8 N 43 52 23 28 1012.2 1012.1 0.0
21/06:30pm 25.6 21.7 21.5 78 2.7 N 44 56 24 30 1011.8 1011.7 0.0
21/06:00pm 25.8 21.8 21.2 76 3.0 N 44 54 24 29 1011.6 1011.5 0.0
21/05:30pm 26.1 21.7 21.3 75 3.2 NNE 46 54 25 29 1011.3 1011.2 0.0
21/05:00pm 26.2 21.8 21.2 74 3.3 NNE 46 54 25 29 1011.0 1010.9 0.0
21/04:30pm 26.7 22.8 21.2 72 3.6 NNE 43 52 23 28 1010.8 1010.7 0.0
21/04:00pm 27.0 22.9 20.8 69 4.1 NNE 43 52 23 28 1011.0 1010.9 0.0
21/03:30pm 27.2 23.2 21.2 69 4.0 NNE 44 52 24 28 1010.9 1010.8 0.0
21/03:00pm 27.5 23.7 21.3 69 4.1 NNE 43 50 23 27 1011.2 1011.1 0.0
21/02:30pm 27.4 23.7 20.7 67 4.4 NNE 41 48 22 26 1011.6 1011.5 0.0
21/02:00pm 27.5 24.2 20.8 67 4.4 NNE 39 48 21 26 1011.9 1011.8 0.0
21/01:30pm 28.2 24.6 21.0 65 4.8 NNE 41 48 22 26 1012.3 1012.2 0.0
21/01:00pm 28.1 24.2 20.4 63 5.1 NE 41 48 22 26 1012.7 1012.6 0.0
21/12:30pm 28.0 25.1 20.8 65 4.8 NE 37 44 20 24 1013.3 1013.2 0.0
21/12:00pm 28.1 24.8 20.9 65 4.8 NE 39 44 21 24 1013.7 1013.6 0.0
21/11:30am 28.5 26.3 21.5 66 4.7 NNE 35 39 19 21 1014.1 1014.0 0.0
21/11:00am 28.3 25.5 21.1 65 4.8 NNE 37 43 20 23 1014.6 1014.5 0.0
21/10:30am 27.3 25.0 20.6 67 4.4 NNE 33 39 18 21 1015.0 1014.9 0.0
21/10:00am 27.9 26.2 20.5 64 4.9 NNE 30 33 16 18 1015.3 1015.2 0.0
21/09:30am 27.6 26.7 20.7 66 4.6 NNE 26 28 14 15 1015.7 1015.6 0.0
21/09:00am 27.6 27.2 20.2 64 4.8 N 22 28 12 15 1015.8 1015.7 0.0
21/08:30am 27.0 25.5 20.3 66 4.4 N 28 30 15 16 1016.0 1015.9 0.0

Other Formats:

Comma delimited format used in spreadsheet applications
http://www.bom.gov.au/fwo/IDQ60801/IDQ60801.95591.axf

JavaScript Object Notation format (JSON) in row-major order
http://www.bom.gov.au/fwo/IDQ60801/IDQ60801.95591.json